createdAt,value
2019-05-16T00:00:41.920Z,99390.34
2019-05-16T00:03:13.293Z,99389.47
2019-05-16T00:05:51.442Z,99388.05
2019-05-16T00:08:13.622Z,99385.97
2019-05-16T00:10:43.051Z,99373.84
2019-05-16T00:13:14.012Z,99375.82
2019-05-16T00:15:45.463Z,99370.64
2019-05-16T00:18:17.982Z,99367.70
2019-05-16T00:20:49.242Z,99374.13
2019-05-16T00:23:20.851Z,99369.30
2019-05-16T00:25:51.328Z,99374.67
2019-05-16T00:28:21.600Z,99369.57
2019-05-16T00:30:52.941Z,99368.05
2019-05-16T00:33:22.388Z,99369.09
2019-05-16T00:36:02.666Z,99369.30
2019-05-16T00:38:27.832Z,99357.84
2019-05-16T00:41:01.445Z,99360.42
2019-05-16T00:43:30.885Z,99366.02
2019-05-16T00:46:01.132Z,99353.79
2019-05-16T00:48:31.666Z,99355.78
2019-05-16T00:51:07.807Z,99352.45
2019-05-16T00:53:40.542Z,99338.84
2019-05-16T00:56:11.873Z,99338.84
2019-05-16T00:58:42.221Z,99335.23
2019-05-16T01:01:12.820Z,99335.15
2019-05-16T01:03:42.508Z,99330.14
2019-05-16T01:06:19.260Z,99331.37
2019-05-16T01:08:43.642Z,99327.22
2019-05-16T01:11:13.321Z,99326.92
2019-05-16T01:13:42.470Z,99325.02
2019-05-16T01:16:15.946Z,99322.27
2019-05-16T01:18:48.408Z,99325.77
2019-05-16T01:21:18.840Z,99325.40
2019-05-16T01:23:52.454Z,99322.11
2019-05-16T01:26:22.533Z,99320.28
2019-05-16T01:28:51.719Z,99314.41
2019-05-16T01:31:23.214Z,99327.30
2019-05-16T01:33:52.656Z,99321.06
2019-05-16T01:36:34.246Z,99320.69
2019-05-16T01:38:58.515Z,99314.98
2019-05-16T01:41:32.784Z,99317.09
2019-05-16T01:44:03.571Z,99322.66
2019-05-16T01:46:34.826Z,99316.31
2019-05-16T01:49:08.081Z,99321.55
2019-05-16T01:51:37.971Z,99314.59
2019-05-16T01:54:08.750Z,99309.54
2019-05-16T01:56:39.797Z,99315.17
2019-05-16T01:59:09.818Z,99311.50
2019-05-16T02:01:40.880Z,99309.16
2019-05-16T02:04:12.262Z,99311.77
2019-05-16T02:06:51.773Z,99313.53
2019-05-16T02:09:18.845Z,99306.33
2019-05-16T02:11:49.810Z,99307.27
2019-05-16T02:14:19.926Z,99308.37
2019-05-16T02:16:49.376Z,99301.62
2019-05-16T02:19:21.173Z,99293.06
2019-05-16T02:21:50.823Z,99289.64
2019-05-16T02:24:22.494Z,99283.23
2019-05-16T02:26:54.728Z,99285.85
2019-05-16T02:29:25.242Z,99281.78
2019-05-16T02:31:54.924Z,99276.69
2019-05-16T02:34:24.209Z,99281.41
2019-05-16T02:37:14.710Z,99273.20
2019-05-16T02:39:25.510Z,99275.38
2019-05-16T02:41:54.938Z,99273.11
2019-05-16T02:44:26.987Z,99265.14
2019-05-16T02:46:56.445Z,99267.90
2019-05-16T02:49:27.094Z,99263.72
2019-05-16T02:51:57.016Z,99258.33
2019-05-16T02:54:26.320Z,99263.64
2019-05-16T02:56:57.844Z,99254.95
2019-05-16T02:59:31.399Z,99255.13
2019-05-16T03:02:02.958Z,99255.70
2019-05-16T03:04:32.651Z,99254.98
2019-05-16T03:07:05.848Z,99248.52
2019-05-16T03:09:41.179Z,99250.29
2019-05-16T03:12:14.919Z,99251.45
2019-05-16T03:14:50.376Z,99245.84
2019-05-16T03:17:23.725Z,99240.28
2019-05-16T03:19:56.419Z,99241.33
2019-05-16T03:22:31.806Z,99246.03
2019-05-16T03:25:02.355Z,99235.12
2019-05-16T03:27:31.508Z,99235.80
2019-05-16T03:30:02.562Z,99232.75
2019-05-16T03:32:43.746Z,99232.91
2019-05-16T03:35:15.384Z,99231.63
2019-05-16T03:37:54.967Z,99232.93
2019-05-16T03:40:16.349Z,99228.11
2019-05-16T03:42:51.703Z,99221.61
2019-05-16T03:45:21.291Z,99225.20
2019-05-16T03:47:51.753Z,99222.17
2019-05-16T03:50:22.065Z,99219.44
2019-05-16T03:52:56.622Z,99222.55
2019-05-16T03:55:31.570Z,99225.19
2019-05-16T03:58:01.807Z,99218.95
2019-05-16T04:00:52.061Z,99216.33
2019-05-16T04:03:28.102Z,99211.20
2019-05-16T04:05:55.382Z,99206.30
2019-05-16T04:08:25.840Z,99208.27
2019-05-16T04:10:56.279Z,99208.27
2019-05-16T04:13:31.385Z,99211.32
2019-05-16T04:16:03.793Z,99203.04
2019-05-16T04:18:36.989Z,99204.20
2019-05-16T04:21:12.303Z,99204.86
2019-05-16T04:23:45.098Z,99196.58
2019-05-16T04:26:22.127Z,99195.70
2019-05-16T04:28:51.899Z,99200.80
2019-05-16T04:31:25.721Z,99200.61
2019-05-16T04:33:56.474Z,99193.06
2019-05-16T04:36:26.210Z,99195.63
2019-05-16T04:38:55.367Z,99196.20
2019-05-16T04:41:26.061Z,99194.20
2019-05-16T04:44:00.566Z,99200.61
2019-05-16T04:46:31.378Z,99196.56
2019-05-16T04:49:02.118Z,99193.64
2019-05-16T04:51:37.232Z,99199.95
2019-05-16T04:54:07.104Z,99195.22
2019-05-16T04:56:36.594Z,99193.22
2019-05-16T04:59:05.859Z,99189.36
2019-05-16T05:01:35.048Z,99190.69
2019-05-16T05:04:10.815Z,99189.95
2019-05-16T05:06:37.034Z,99192.95
2019-05-16T05:09:11.658Z,99189.26
2019-05-16T05:11:41.864Z,99187.81
2019-05-16T05:14:11.498Z,99188.33
2019-05-16T05:16:41.284Z,99190.41
2019-05-16T05:19:11.434Z,99191.92
2019-05-16T05:21:41.751Z,99185.41
2019-05-16T05:24:15.581Z,99188.98
2019-05-16T05:26:45.579Z,99187.74
2019-05-16T05:29:14.982Z,99188.50
2019-05-16T05:31:54.235Z,99186.43
2019-05-16T05:34:19.854Z,99193.50
2019-05-16T05:36:51.160Z,99198.70
2019-05-16T05:39:20.879Z,99199.60
2019-05-16T05:41:54.787Z,99204.82
2019-05-16T05:44:23.991Z,99200.50
2019-05-16T05:46:54.222Z,99200.76
2019-05-16T05:49:23.968Z,99201.04
2019-05-16T05:52:20.856Z,99196.53
2019-05-16T05:54:50.418Z,99195.98
2019-05-16T05:57:21.028Z,99199.95
2019-05-16T05:59:50.478Z,99205.86
2019-05-16T06:02:20.878Z,99204.55
2019-05-16T06:04:50.527Z,99200.33
2019-05-16T06:07:23.370Z,99196.53
2019-05-16T06:09:56.441Z,99199.08
2019-05-16T06:12:24.499Z,99199.19
2019-05-16T06:14:54.240Z,99198.83
2019-05-16T06:17:24.074Z,99197.52
2019-05-16T06:19:54.296Z,99191.00
2019-05-16T06:22:29.907Z,99185.95
2019-05-16T06:25:01.158Z,99183.39
2019-05-16T06:27:31.913Z,99186.72
2019-05-16T06:30:02.357Z,99187.56
2019-05-16T06:32:34.381Z,99183.13
2019-05-16T06:35:09.901Z,99181.25
2019-05-16T06:37:40.753Z,99174.66
2019-05-16T06:40:11.845Z,99175.95
2019-05-16T06:42:41.312Z,99172.28
2019-05-16T06:45:11.360Z,99175.09
2019-05-16T06:47:40.826Z,99175.50
2019-05-16T06:50:11.605Z,99168.80
2019-05-16T06:52:47.334Z,99174.73
2019-05-16T06:55:17.258Z,99169.25
2019-05-16T06:57:46.843Z,99161.89
2019-05-16T07:00:16.776Z,99161.50
2019-05-16T07:02:46.600Z,99160.37
2019-05-16T07:05:20.532Z,99163.41
2019-05-16T07:07:52.330Z,99156.42
2019-05-16T07:10:26.087Z,99162.34
2019-05-16T07:12:56.314Z,99160.86
2019-05-16T07:15:29.859Z,99154.70
2019-05-16T07:17:59.794Z,99156.58
2019-05-16T07:20:30.198Z,99157.81
2019-05-16T07:23:00.923Z,99154.43
2019-05-16T07:25:30.530Z,99160.48
2019-05-16T07:28:00.703Z,99155.85
2019-05-16T07:30:30.365Z,99149.59
2019-05-16T07:33:00.285Z,99147.44
2019-05-16T07:35:30.773Z,99149.89
2019-05-16T07:38:05.945Z,99152.33
2019-05-16T07:40:35.165Z,99148.77
2019-05-16T07:43:05.243Z,99152.27
2019-05-16T07:45:37.833Z,99143.64
2019-05-16T07:48:06.965Z,99146.24
2019-05-16T07:50:37.007Z,99140.67
2019-05-16T07:53:06.214Z,99143.48
2019-05-16T07:55:35.489Z,99132.16
2019-05-16T07:58:04.964Z,99131.84
2019-05-16T08:00:49.698Z,99128.62
2019-05-16T08:03:05.607Z,99132.39
2019-05-16T08:05:35.140Z,99132.21
2019-05-16T08:08:04.926Z,99123.15
2019-05-16T08:10:41.696Z,99120.77
2019-05-16T08:13:05.240Z,99121.41
2019-05-16T08:15:34.449Z,99123.05
2019-05-16T08:18:04.411Z,99115.95
2019-05-16T08:20:37.988Z,99118.40
2019-05-16T08:23:07.225Z,99110.56
2019-05-16T08:25:40.658Z,99106.79
2019-05-16T08:28:11.650Z,99109.44
2019-05-16T08:33:13.567Z,99106.99
2019-05-16T08:35:42.950Z,99100.68
2019-05-16T08:38:13.661Z,99100.31
2019-05-16T08:41:04.654Z,99092.41
2019-05-16T08:43:13.799Z,99087.14
2019-05-16T08:45:43.053Z,99085.66
2019-05-16T08:48:12.213Z,99084.36
2019-05-16T08:50:49.594Z,99077.70
2019-05-16T08:53:13.964Z,99076.03
2019-05-16T08:55:44.099Z,99070.30
2019-05-16T08:58:13.765Z,99063.19
2019-05-16T09:00:44.159Z,99054.13
2019-05-16T09:03:13.631Z,99051.26
2019-05-16T09:05:43.108Z,99054.61
2019-05-16T09:08:13.492Z,99045.53
2019-05-16T09:10:34.819Z,99110.58
2019-05-16T09:10:59.120Z,99044.56
2019-05-16T09:13:17.582Z,99035.86
2019-05-16T09:15:48.047Z,99033.07
2019-05-16T09:18:17.947Z,99026.80
2019-05-16T09:20:49.926Z,99036.20
2019-05-16T09:23:18.176Z,99027.69
2019-05-16T09:25:48.838Z,99025.68
2019-05-16T09:28:18.208Z,99025.08
2019-05-16T09:30:47.781Z,99023.52
2019-05-16T09:33:17.865Z,99020.17
2019-05-16T09:35:48.022Z,99026.39
2019-05-16T09:38:22.879Z,99023.88
2019-05-16T09:40:48.480Z,99011.81
2019-05-16T09:43:18.096Z,99008.45
2019-05-16T09:45:47.615Z,99001.79
2019-05-16T09:48:18.832Z,98993.77
2019-05-16T09:50:47.859Z,98989.27
2019-05-16T09:53:17.433Z,98990.13
2019-05-16T09:55:47.340Z,98989.64
2019-05-16T09:58:18.018Z,98989.52
2019-05-16T10:00:48.131Z,98983.09
2019-05-16T10:03:21.965Z,98987.94
2019-05-16T10:05:48.381Z,98975.84
2019-05-16T10:08:17.621Z,98978.48
2019-05-16T10:10:46.756Z,98981.88
2019-05-16T10:13:18.297Z,98969.80
2019-05-16T10:15:47.548Z,98970.45
2019-05-16T10:18:17.160Z,98963.65
2019-05-16T10:20:46.342Z,98954.05
2019-05-16T10:23:18.029Z,98949.45
2019-05-16T10:25:48.551Z,98940.30
2019-05-16T10:28:20.025Z,98939.69
2019-05-16T10:30:50.132Z,98940.17
2019-05-16T10:33:19.658Z,98941.65
2019-05-16T10:35:49.150Z,98934.09
2019-05-16T10:38:19.167Z,98935.33
2019-05-16T10:40:48.315Z,98929.03
2019-05-16T10:43:17.802Z,98924.53
2019-05-16T10:45:47.305Z,98917.84
2019-05-16T10:48:17.581Z,98914.09
2019-05-16T10:50:47.774Z,98920.23
2019-05-16T10:53:52.319Z,98911.17
2019-05-16T10:55:48.575Z,98908.59
2019-05-16T10:58:32.925Z,98903.42
2019-05-16T11:01:11.025Z,98906.39
2019-05-16T11:03:21.052Z,98911.99
2019-05-16T11:06:03.061Z,98900.84
2019-05-16T11:08:21.423Z,98898.84
2019-05-16T11:10:50.713Z,98896.25
2019-05-16T11:13:20.654Z,98894.42
2019-05-16T11:15:51.028Z,98892.09
2019-05-16T11:18:20.887Z,98890.25
2019-05-16T11:20:50.969Z,98896.16
2019-05-16T11:23:30.661Z,98889.46
2019-05-16T11:26:01.085Z,98891.89
2019-05-16T11:28:32.305Z,98886.10
2019-05-16T11:31:03.703Z,98885.01
2019-05-16T11:33:33.257Z,98895.77
2019-05-16T11:36:02.449Z,98893.23
2019-05-16T11:38:43.721Z,98893.07
2019-05-16T11:41:16.716Z,98897.10
2019-05-16T11:43:47.505Z,98891.59
2019-05-16T11:46:18.499Z,98890.91
2019-05-16T11:48:49.057Z,98883.73
2019-05-16T11:51:23.804Z,98891.13
2019-05-16T11:53:59.722Z,98888.37
2019-05-16T11:56:27.893Z,98887.67
2019-05-16T11:58:57.257Z,98883.48
2019-05-16T12:01:27.497Z,98881.42
2019-05-16T12:03:57.701Z,98882.54
2019-05-16T12:06:30.515Z,98886.03
2019-05-16T12:09:03.811Z,98887.92
2019-05-16T12:11:33.680Z,98882.13
2019-05-16T12:14:02.864Z,98881.98
2019-05-16T12:16:33.445Z,98877.53
2019-05-16T12:19:03.003Z,98877.42
2019-05-16T12:21:34.935Z,98880.79
2019-05-16T12:24:07.459Z,98879.52
2019-05-16T12:26:37.226Z,98888.64
2019-05-16T12:29:07.530Z,98882.94
2019-05-16T12:31:37.634Z,98876.84
2019-05-16T12:34:09.439Z,98881.80
2019-05-16T12:36:41.655Z,98872.92
2019-05-16T12:39:13.566Z,98877.38
2019-05-16T12:41:42.794Z,98872.47
2019-05-16T12:44:11.965Z,98881.95
2019-05-16T12:46:43.938Z,98875.73
2019-05-16T12:49:13.661Z,98878.66
2019-05-16T12:51:43.083Z,98888.29
2019-05-16T12:54:17.974Z,98887.67
2019-05-16T12:56:48.241Z,98894.86
2019-05-16T12:59:21.559Z,98899.02
2019-05-16T13:01:51.536Z,98891.43
2019-05-16T13:04:20.738Z,98892.27
2019-05-16T13:06:54.147Z,98893.93
2019-05-16T13:09:26.573Z,98889.79
2019-05-16T13:11:57.764Z,98886.68
2019-05-16T13:14:28.893Z,98885.34
2019-05-16T13:17:07.433Z,98882.80
2019-05-16T13:19:44.704Z,98870.02
2019-05-16T13:22:16.656Z,98868.17
2019-05-16T13:24:48.056Z,98857.16
2019-05-16T13:27:22.819Z,98852.70
2019-05-16T13:29:51.708Z,98849.84
2019-05-16T13:32:21.832Z,98851.02
2019-05-16T13:34:59.186Z,98852.36
2019-05-16T13:37:31.493Z,98852.14
2019-05-16T13:40:01.889Z,98850.03
2019-05-16T13:42:33.242Z,98842.41
2019-05-16T13:45:06.802Z,98843.52
2019-05-16T13:47:37.873Z,98839.20
2019-05-16T13:50:12.068Z,98838.00
2019-05-16T13:52:41.374Z,98832.02
2019-05-16T13:55:12.084Z,98837.02
2019-05-16T13:57:43.738Z,98835.56
2019-05-16T14:00:17.322Z,98834.67
2019-05-16T14:02:47.593Z,98834.42
2019-05-16T14:05:21.078Z,98837.56
2019-05-16T14:07:57.240Z,98840.40
2019-05-16T14:10:29.885Z,98832.34
2019-05-16T14:12:59.804Z,98832.68
2019-05-16T14:15:30.319Z,98832.47
2019-05-16T14:18:00.073Z,98829.84
2019-05-16T14:20:32.365Z,98827.92
2019-05-16T14:23:04.569Z,98823.62
2019-05-16T14:25:38.110Z,98821.38
2019-05-16T14:28:08.244Z,98813.64
2019-05-16T14:30:39.546Z,98812.41
2019-05-16T14:33:13.819Z,98808.02
2019-05-16T14:35:40.896Z,98811.09
2019-05-16T14:38:11.969Z,98814.60
2019-05-16T14:40:49.835Z,98812.64
2019-05-16T14:43:17.383Z,98815.21
2019-05-16T14:45:50.108Z,98804.11
2019-05-16T14:48:24.172Z,98808.52
2019-05-16T14:50:57.311Z,98807.24
2019-05-16T14:53:28.418Z,98805.64
2019-05-16T14:55:59.933Z,98805.36
2019-05-16T14:58:30.848Z,98810.98
2019-05-16T15:01:02.652Z,98804.16
2019-05-16T15:03:38.441Z,98805.34
2019-05-16T15:06:10.073Z,98807.76
2019-05-16T15:08:42.603Z,98798.70
2019-05-16T15:11:17.909Z,98799.64
2019-05-16T15:13:47.635Z,98799.61
2019-05-16T15:16:20.215Z,98796.17
2019-05-16T15:18:57.591Z,98803.47
2019-05-16T15:21:30.106Z,98794.73
2019-05-16T15:24:01.633Z,98793.16
2019-05-16T15:26:33.943Z,98793.34
2019-05-16T15:29:07.907Z,98793.34
2019-05-16T15:31:39.599Z,98789.91
2019-05-16T15:34:08.155Z,98791.73
2019-05-16T15:36:40.880Z,98790.39
2019-05-16T15:39:10.375Z,98791.30
2019-05-16T15:42:02.934Z,98792.03
2019-05-16T15:44:37.315Z,98785.64
2019-05-16T15:47:08.009Z,98778.25
2019-05-16T15:49:39.786Z,98782.24
2019-05-16T15:52:10.338Z,98774.80
2019-05-16T15:54:50.904Z,98781.78
2019-05-16T15:57:20.197Z,98772.98
2019-05-16T15:59:49.677Z,98775.95
2019-05-16T16:02:19.150Z,98774.14
2019-05-16T16:04:48.306Z,98767.03
2019-05-16T16:07:18.257Z,98765.80
2019-05-16T16:09:47.540Z,98770.28
2019-05-16T16:12:17.618Z,98761.09
2019-05-16T16:14:47.163Z,98761.92
2019-05-16T16:17:17.771Z,98765.58
2019-05-16T16:19:47.376Z,98754.56
2019-05-16T16:22:18.502Z,98749.55
2019-05-16T16:24:48.996Z,98754.37
2019-05-16T16:27:19.191Z,98747.81
2019-05-16T16:29:48.368Z,98741.79
2019-05-16T16:32:17.565Z,98743.70
2019-05-16T16:34:49.138Z,98740.89
2019-05-16T16:37:20.176Z,98741.16
2019-05-16T16:39:49.380Z,98737.91
2019-05-16T16:42:20.318Z,98738.36
2019-05-16T16:44:51.469Z,98732.77
2019-05-16T16:47:20.639Z,98736.99
2019-05-16T16:49:50.326Z,98735.02
2019-05-16T16:52:19.467Z,98737.79
2019-05-16T16:54:48.630Z,98732.12
2019-05-16T16:57:18.356Z,98730.67
2019-05-16T16:59:48.313Z,98730.44
2019-05-16T17:02:18.124Z,98733.09
2019-05-16T17:04:51.516Z,98734.81
2019-05-16T17:07:20.587Z,98729.63
2019-05-16T17:09:50.348Z,98729.92
2019-05-16T17:12:19.817Z,98727.98
2019-05-16T17:14:49.264Z,98730.99
2019-05-16T17:17:21.165Z,98730.59
2019-05-16T17:19:52.748Z,98737.34
2019-05-16T17:22:21.945Z,98740.09
2019-05-16T17:24:51.390Z,98740.69
2019-05-16T17:27:23.193Z,98744.55
2019-05-16T17:29:52.995Z,98746.99
2019-05-16T17:32:22.157Z,98745.88
2019-05-16T17:34:51.312Z,98751.00
2019-05-16T17:37:20.799Z,98749.33
2019-05-16T17:39:50.341Z,98748.88
2019-05-16T17:42:19.528Z,98752.64
2019-05-16T17:44:49.475Z,98747.81
2019-05-16T17:47:18.800Z,98755.39
2019-05-16T17:49:49.464Z,98751.36
2019-05-16T17:52:18.681Z,98755.74
2019-05-16T17:54:55.867Z,98751.13
2019-05-16T17:57:31.059Z,98752.44
2019-05-16T18:00:03.384Z,98757.43
2019-05-16T18:02:33.955Z,98757.70
2019-05-16T18:05:09.573Z,98760.46
2019-05-16T18:07:40.819Z,98764.84
2019-05-16T18:10:11.527Z,98760.88
2019-05-16T18:12:43.812Z,98756.72
2019-05-16T18:15:19.173Z,98763.23
2019-05-16T18:17:49.556Z,98762.86
2019-05-16T18:20:22.522Z,98765.83
2019-05-16T18:22:56.832Z,98769.33
2019-05-16T18:25:29.005Z,98768.30
2019-05-16T18:28:00.754Z,98770.16
2019-05-16T18:30:33.486Z,98764.97
2019-05-16T18:33:06.942Z,98769.79
2019-05-16T18:35:37.104Z,98764.02
2019-05-16T18:38:12.194Z,98762.56
2019-05-16T18:40:47.319Z,98768.81
2019-05-16T18:43:21.229Z,98765.55
2019-05-16T18:45:53.824Z,98759.78
2019-05-16T18:48:23.314Z,98759.19
2019-05-16T18:50:54.204Z,98764.70
2019-05-16T18:53:26.972Z,98762.88
2019-05-16T18:56:02.923Z,98765.89
2019-05-16T18:58:37.018Z,98760.77
2019-05-16T19:01:08.494Z,98761.18
2019-05-16T19:03:40.461Z,98760.67
2019-05-16T19:06:16.980Z,98759.55
2019-05-16T19:08:46.369Z,98757.38
2019-05-16T19:11:17.526Z,98757.95
2019-05-16T19:13:47.582Z,98752.09
2019-05-16T19:16:17.059Z,98756.73
2019-05-16T19:18:46.298Z,98750.84
2019-05-16T19:21:16.873Z,98748.84
2019-05-16T19:23:47.084Z,98747.01
2019-05-16T19:26:17.611Z,98747.59
2019-05-16T19:28:49.142Z,98746.39
2019-05-16T19:31:19.406Z,98741.42
2019-05-16T19:33:50.451Z,98741.53
2019-05-16T19:36:20.275Z,98736.67
2019-05-16T19:38:52.559Z,98738.84
2019-05-16T19:41:24.112Z,98732.70
2019-05-16T19:43:54.364Z,98743.73
2019-05-16T19:46:26.958Z,98736.72
2019-05-16T19:48:57.042Z,98739.56
2019-05-16T19:51:26.907Z,98738.25
2019-05-16T19:53:56.638Z,98738.25
2019-05-16T19:56:26.971Z,98738.41
2019-05-16T19:58:57.227Z,98734.44
2019-05-16T20:01:27.411Z,98741.27
2019-05-16T20:03:57.014Z,98733.74
2019-05-16T20:06:27.474Z,98734.58
2019-05-16T20:08:57.533Z,98737.41
2019-05-16T20:11:27.629Z,98731.42
2019-05-16T20:13:56.898Z,98730.98
2019-05-16T20:16:27.344Z,98725.95
2019-05-16T20:18:56.644Z,98727.93
2019-05-16T20:21:27.493Z,98724.95
2019-05-16T20:23:56.913Z,98726.72
2019-05-16T20:26:27.381Z,98724.05
2019-05-16T20:28:59.554Z,98724.48
2019-05-16T20:31:27.449Z,98720.59
2019-05-16T20:33:57.083Z,98728.48
2019-05-16T20:36:26.462Z,98723.45
2019-05-16T20:38:55.601Z,98726.72
2019-05-16T20:41:24.792Z,98724.74
2019-05-16T20:43:53.948Z,98718.81
2019-05-16T20:46:23.122Z,98718.78
2019-05-16T20:48:52.291Z,98712.83
2019-05-16T20:51:21.485Z,98714.74
2019-05-16T20:53:50.649Z,98714.22
2019-05-16T20:56:20.120Z,98714.67
2019-05-16T20:58:49.516Z,98716.40
2019-05-16T21:01:19.467Z,98715.22
2019-05-16T21:03:48.624Z,98715.95
2019-05-16T21:06:17.815Z,98710.55
2019-05-16T21:08:49.656Z,98708.67
2019-05-16T21:11:20.255Z,98704.53
2019-05-16T21:13:49.698Z,98705.16
2019-05-16T21:16:20.919Z,98703.75
2019-05-16T21:18:50.925Z,98697.44
2019-05-16T21:21:20.527Z,98695.79
2019-05-16T21:23:50.525Z,98697.52
2019-05-16T21:26:19.991Z,98691.89
2019-05-16T21:28:49.473Z,98692.74
2019-05-16T21:31:20.192Z,98690.72
2019-05-16T21:33:49.892Z,98688.63
2019-05-16T21:36:22.982Z,98695.58
2019-05-16T21:38:53.274Z,98691.83
2019-05-16T21:41:23.940Z,98692.52
2019-05-16T21:43:56.132Z,98681.90
2019-05-16T21:46:27.139Z,98685.66
2019-05-16T21:48:59.047Z,98683.74
2019-05-16T21:51:28.495Z,98685.09
2019-05-16T21:54:00.728Z,98680.63
2019-05-16T21:56:32.588Z,98677.98
2019-05-16T21:59:02.535Z,98678.12
2019-05-16T22:01:37.347Z,98678.19
2019-05-16T22:04:11.576Z,98673.27
2019-05-16T22:06:41.910Z,98670.30
2019-05-16T22:09:11.092Z,98668.67
2019-05-16T22:11:46.562Z,98661.63
2019-05-16T22:14:21.784Z,98659.23
2019-05-16T22:16:57.858Z,98661.63
2019-05-16T22:19:31.169Z,98658.77
2019-05-16T22:22:01.910Z,98654.55
2019-05-16T22:24:31.940Z,98650.68
2019-05-16T22:27:01.351Z,98653.81
2019-05-16T22:29:31.587Z,98648.05
2019-05-16T22:32:07.101Z,98650.14
2019-05-16T22:34:40.976Z,98647.02
2019-05-16T22:37:10.734Z,98650.69
2019-05-16T22:39:41.452Z,98644.29
2019-05-16T22:42:12.072Z,98645.61
2019-05-16T22:44:41.479Z,98640.59
2019-05-16T22:47:17.151Z,98637.36
2019-05-16T22:49:47.917Z,98634.07
2019-05-16T22:52:19.598Z,98626.44
2019-05-16T22:54:48.802Z,98626.59
2019-05-16T22:57:19.827Z,98621.16
2019-05-16T22:59:48.985Z,98618.45
2019-05-16T23:02:18.197Z,98625.91
2019-05-16T23:04:47.639Z,98615.40
2019-05-16T23:07:16.893Z,98616.99
2019-05-16T23:09:47.215Z,98614.22
2019-05-16T23:12:17.613Z,98607.53
2019-05-16T23:14:46.745Z,98607.83
2019-05-16T23:17:17.364Z,98603.93
2019-05-16T23:19:47.638Z,98599.27
2019-05-16T23:22:19.967Z,98600.95
2019-05-16T23:24:52.821Z,98595.72
2019-05-16T23:27:24.455Z,98600.86
2019-05-16T23:29:53.907Z,98587.91
2019-05-16T23:32:23.651Z,98592.28
2019-05-16T23:34:53.601Z,98592.72
2019-05-16T23:37:27.289Z,98588.68
2019-05-16T23:39:56.953Z,98586.85
2019-05-16T23:42:26.436Z,98588.88
2019-05-16T23:44:57.331Z,98587.41
2019-05-16T23:47:26.957Z,98591.59
2019-05-16T23:49:57.608Z,98587.26
2019-05-16T23:52:31.328Z,98584.09
2019-05-16T23:55:02.541Z,98582.92
2019-05-16T23:57:37.123Z,98582.77
